Wetterdaten: Woche 07.11.11 - 13.11.11 (KW45)
Datum Zeit Temp. I. Temp. A. Boden 5 cm Feuchte A. Sonne Luftdruck Regen Wind Sonnenschein Zeit Regen
07.11.2011 00:00 21,9 C 12,9 C 11,5 C 71 % 0 % 1007 hPa 0,0 l/m 23,4 km/h (4 Bft) 0,00 h 0,00 h
07.11.2011 01:00 21,8 C 12,9 C 11,6 C 70 % 0 % 1008 hPa 0,0 l/m 28,3 km/h (4 Bft) 0,00 h 0,00 h
07.11.2011 02:00 21,7 C 13,1 C 11,6 C 67 % 0 % 1008 hPa 0,0 l/m 24,6 km/h (4 Bft) 0,00 h 0,00 h
07.11.2011 03:00 21,6 C 12,7 C 11,4 C 67 % 0 % 1008 hPa 0,0 l/m 26,3 km/h (4 Bft) 0,00 h 0,00 h
07.11.2011 04:00 21,6 C 11,7 C 10,3 C 69 % 0 % 1008 hPa 0,0 l/m 19,1 km/h (3 Bft) 0,00 h 0,00 h
07.11.2011 05:00 21,7 C 10,5 C 9,1 C 72 % 0 % 1008 hPa 0,0 l/m 16,8 km/h (3 Bft) 0,00 h 0,00 h
07.11.2011 06:00 21,8 C 9,4 C 8,3 C 72 % 0 % 1008 hPa 0,0 l/m 22,9 km/h (4 Bft) 0,00 h 0,00 h
07.11.2011 07:00 21,1 C 8,6 C 7,8 C 73 % 3 % 1008 hPa 0,0 l/m 24,4 km/h (4 Bft) 0,00 h 0,00 h
07.11.2011 08:00 20,4 C 9,1 C 9,3 C 70 % 10 % 1009 hPa 0,0 l/m 27,9 km/h (4 Bft) 0,00 h 0,00 h
07.11.2011 09:00 20,7 C 10,0 C 9,8 C 67 % 27 % 1009 hPa 0,0 l/m 25,3 km/h (4 Bft) 0,00 h 0,00 h
07.11.2011 10:00 21,5 C 10,9 C 10,9 C 63 % 30 % 1010 hPa 0,0 l/m 19,4 km/h (3 Bft) 0,00 h 0,00 h
07.11.2011 11:00 21,9 C 11,3 C 12,4 C 62 % 41 % 1010 hPa 0,0 l/m 19,0 km/h (3 Bft) 0,20 h 0,00 h
07.11.2011 12:00 21,9 C 13,0 C 13,5 C 58 % 77 % 1009 hPa 0,0 l/m 19,7 km/h (3 Bft) 0,90 h 0,00 h
07.11.2011 13:00 21,8 C 14,0 C 13,3 C 57 % 59 % 1009 hPa 0,0 l/m 21,8 km/h (4 Bft) 0,60 h 0,00 h
07.11.2011 14:00 21,8 C 13,7 C 12,9 C 58 % 29 % 1009 hPa 0,0 l/m 28,2 km/h (4 Bft) 0,00 h 0,00 h
07.11.2011 15:00 21,9 C 12,9 C 11,9 C 62 % 13 % 1010 hPa 0,0 l/m 22,6 km/h (4 Bft) 0,00 h 0,00 h
07.11.2011 16:00 22,0 C 12,2 C 10,8 C 64 % 3 % 1010 hPa 0,0 l/m 20,6 km/h (4 Bft) 0,00 h 0,00 h
07.11.2011 17:00 21,8 C 11,5 C 10,3 C 67 % 0 % 1011 hPa 0,0 l/m 23,7 km/h (4 Bft) 0,00 h 0,00 h
07.11.2011 18:00 21,8 C 11,0 C 9,7 C 69 % 0 % 1011 hPa 0,0 l/m 22,4 km/h (4 Bft) 0,00 h 0,00 h
07.11.2011 19:00 22,0 C 10,4 C 9,3 C 72 % 0 % 1011 hPa 0,0 l/m 22,2 km/h (4 Bft) 0,00 h 0,00 h
07.11.2011 20:00 21,9 C 10,0 C 8,7 C 74 % 0 % 1012 hPa 0,0 l/m 18,1 km/h (3 Bft) 0,00 h 0,00 h
07.11.2011 21:00 21,9 C 9,2 C 7,8 C 77 % 0 % 1012 hPa 0,0 l/m 10,5 km/h (2 Bft) 0,00 h 0,00 h
07.11.2011 22:00 21,8 C 8,6 C 7,3 C 80 % 0 % 1012 hPa 0,0 l/m 9,7 km/h (2 Bft) 0,00 h 0,00 h
07.11.2011 23:00 21,8 C 8,1 C 6,9 C 82 % 0 % 1012 hPa 0,0 l/m 9,5 km/h (2 Bft) 0,00 h 0,00 h
08.11.2011 00:00 21,7 C 7,7 C 6,6 C 84 % 0 % 1012 hPa 0,0 l/m 6,9 km/h (2 Bft) 0,00 h 0,00 h
08.11.2011 01:00 21,7 C 7,0 C 5,6 C 85 % 0 % 1013 hPa 0,0 l/m 1,6 km/h (1 Bft) 0,00 h 0,00 h
08.11.2011 02:00 21,7 C 6,6 C 5,5 C 86 % 0 % 1013 hPa 0,0 l/m 5,5 km/h (1 Bft) 0,00 h 0,00 h
08.11.2011 03:00 21,6 C 6,1 C 5,3 C 88 % 0 % 1013 hPa 0,0 l/m 4,2 km/h (1 Bft) 0,00 h 0,00 h
08.11.2011 04:00 21,7 C 5,8 C 5,5 C 89 % 0 % 1013 hPa 0,0 l/m 2,4 km/h (1 Bft) 0,00 h 0,00 h
08.11.2011 05:00 21,5 C 5,8 C 5,4 C 90 % 0 % 1013 hPa 0,0 l/m 3,7 km/h (1 Bft) 0,00 h 0,00 h
08.11.2011 06:00 19,9 C 5,5 C 5,0 C 91 % 0 % 1013 hPa 0,0 l/m 2,2 km/h (1 Bft) 0,00 h 0,00 h
08.11.2011 07:00 20,7 C 5,5 C 5,3 C 92 % 3 % 1013 hPa 0,0 l/m 4,9 km/h (1 Bft) 0,00 h 0,00 h
08.11.2011 08:00 21,4 C 6,2 C 6,9 C 92 % 9 % 1013 hPa 0,0 l/m 7,0 km/h (2 Bft) 0,00 h 0,00 h
08.11.2011 09:00 21,6 C 7,9 C 8,0 C 89 % 26 % 1013 hPa 0,0 l/m 10,8 km/h (2 Bft) 0,00 h 0,00 h
08.11.2011 10:00 21,6 C 10,1 C 10,7 C 80 % 50 % 1013 hPa 0,0 l/m 11,3 km/h (2 Bft) 0,45 h 0,00 h
08.11.2011 11:00 21,6 C 11,9 C 15,2 C 72 % 79 % 1013 hPa 0,0 l/m 16,7 km/h (3 Bft) 1,00 h 0,00 h
08.11.2011 12:00 21,6 C 13,1 C 13,4 C 67 % 75 % 1012 hPa 0,0 l/m 16,1 km/h (3 Bft) 1,00 h 0,00 h
08.11.2011 13:00 21,7 C 14,1 C 13,4 C 64 % 51 % 1012 hPa 0,0 l/m 14,6 km/h (3 Bft) 0,35 h 0,00 h
08.11.2011 14:00 22,0 C 14,4 C 13,9 C 64 % 31 % 1012 hPa 0,0 l/m 8,9 km/h (2 Bft) 0,00 h 0,00 h
08.11.2011 15:00 21,9 C 14,1 C 13,1 C 66 % 16 % 1012 hPa 0,0 l/m 7,8 km/h (2 Bft) 0,00 h 0,00 h
08.11.2011 16:00 22,0 C 13,2 C 11,0 C 69 % 3 % 1012 hPa 0,0 l/m 8,8 km/h (2 Bft) 0,00 h 0,00 h
08.11.2011 17:00 21,9 C 12,2 C 10,1 C 73 % 0 % 1012 hPa 0,0 l/m 11,3 km/h (2 Bft) 0,00 h 0,00 h
08.11.2011 18:00 21,0 C 11,0 C 8,9 C 77 % 0 % 1012 hPa 0,0 l/m 7,4 km/h (2 Bft) 0,00 h 0,00 h
08.11.2011 19:00 21,6 C 10,2 C 8,5 C 80 % 0 % 1013 hPa 0,0 l/m 7,1 km/h (2 Bft) 0,00 h 0,00 h
08.11.2011 20:00 21,8 C 9,3 C 7,2 C 83 % 0 % 1013 hPa 0,0 l/m 3,7 km/h (1 Bft) 0,00 h 0,00 h
08.11.2011 21:00 22,0 C 8,6 C 6,3 C 84 % 0 % 1013 hPa 0,0 l/m 0,5 km/h (0 Bft) 0,00 h 0,00 h
08.11.2011 22:00 22,0 C 7,9 C 5,7 C 86 % 0 % 1013 hPa 0,0 l/m 0,6 km/h (0 Bft) 0,00 h 0,00 h
08.11.2011 23:00 22,1 C 7,2 C 5,4 C 88 % 0 % 1013 hPa 0,0 l/m 0,4 km/h (0 Bft) 0,00 h 0,00 h
09.11.2011 00:00 22,1 C 6,6 C 5,1 C 90 % 0 % 1013 hPa 0,0 l/m 0,0 km/h (0 Bft) 0,00 h 0,00 h
09.11.2011 01:00 22,2 C 6,1 C 4,9 C 90 % 0 % 1013 hPa 0,0 l/m 0,0 km/h (0 Bft) 0,00 h 0,00 h
09.11.2011 02:00 22,2 C 5,8 C 4,7 C 92 % 0 % 1013 hPa 0,0 l/m 0,0 km/h (0 Bft) 0,00 h 0,00 h
09.11.2011 03:00 22,2 C 5,4 C 4,4 C 92 % 0 % 1013 hPa 0,0 l/m 0,0 km/h (0 Bft) 0,00 h 0,00 h
09.11.2011 04:00 22,3 C 5,1 C 4,4 C 93 % 0 % 1014 hPa 0,0 l/m 0,5 km/h (0 Bft) 0,00 h 0,00 h
09.11.2011 05:00 22,2 C 4,8 C 4,1 C 94 % 0 % 1014 hPa 0,0 l/m 1,1 km/h (1 Bft) 0,00 h 0,00 h
09.11.2011 06:00 21,6 C 4,4 C 3,9 C 94 % 0 % 1014 hPa 0,0 l/m 0,0 km/h (0 Bft) 0,00 h 0,00 h
09.11.2011 07:00 20,8 C 4,1 C 4,2 C 95 % 2 % 1015 hPa 0,0 l/m 4,8 km/h (1 Bft) 0,00 h 0,00 h
09.11.2011 08:00 21,9 C 4,5 C 5,4 C 99 % 5 % 1015 hPa 0,0 l/m 8,3 km/h (2 Bft) 0,00 h 0,00 h
09.11.2011 09:00 22,0 C 4,8 C 5,9 C 99 % 9 % 1015 hPa 0,0 l/m 8,9 km/h (2 Bft) 0,00 h 0,00 h
09.11.2011 10:00 22,0 C 5,3 C 6,5 C 99 % 13 % 1016 hPa 0,0 l/m 11,6 km/h (2 Bft) 0,00 h 0,00 h
09.11.2011 11:00 22,0 C 6,0 C 7,6 C 99 % 21 % 1016 hPa 0,0 l/m 11,5 km/h (2 Bft) 0,00 h 0,00 h
09.11.2011 12:00 22,0 C 7,0 C 8,9 C 99 % 49 % 1015 hPa 0,0 l/m 8,7 km/h (2 Bft) 0,45 h 0,00 h
09.11.2011 13:00 22,0 C 7,9 C 8,2 C 97 % 55 % 1015 hPa 0,0 l/m 9,4 km/h (2 Bft) 0,60 h 0,00 h
09.11.2011 14:00 22,0 C 7,8 C 8,7 C 96 % 27 % 1015 hPa 0,0 l/m 6,7 km/h (2 Bft) 0,00 h 0,00 h
09.11.2011 15:00 22,0 C 7,3 C 7,8 C 97 % 10 % 1015 hPa 0,0 l/m 8,0 km/h (2 Bft) 0,00 h 0,00 h
09.11.2011 16:00 22,1 C 6,6 C 6,8 C 99 % 1 % 1015 hPa 0,0 l/m 10,1 km/h (2 Bft) 0,00 h 0,00 h
09.11.2011 17:00 22,4 C 6,1 C 6,5 C 99 % 0 % 1016 hPa 0,0 l/m 13,0 km/h (3 Bft) 0,00 h 0,00 h
09.11.2011 18:00 22,3 C 6,3 C 6,7 C 99 % 0 % 1016 hPa 0,0 l/m 9,4 km/h (2 Bft) 0,00 h 0,00 h
09.11.2011 19:00 22,2 C 6,3 C 6,7 C 99 % 0 % 1016 hPa 0,0 l/m 10,5 km/h (2 Bft) 0,00 h 0,00 h
09.11.2011 20:00 22,2 C 6,3 C 6,6 C 99 % 0 % 1016 hPa 0,0 l/m 12,2 km/h (3 Bft) 0,00 h 0,00 h
09.11.2011 21:00 22,1 C 6,3 C 6,7 C 99 % 0 % 1017 hPa 0,0 l/m 10,0 km/h (2 Bft) 0,00 h 0,00 h
09.11.2011 22:00 22,0 C 6,3 C 6,7 C 99 % 0 % 1017 hPa 0,0 l/m 10,4 km/h (2 Bft) 0,00 h 0,00 h
09.11.2011 23:00 22,0 C 6,2 C 6,6 C 99 % 0 % 1016 hPa 0,0 l/m 7,4 km/h (2 Bft) 0,00 h 0,00 h
10.11.2011 00:00 21,9 C 6,1 C 6,5 C 99 % 0 % 1016 hPa 0,0 l/m 10,1 km/h (2 Bft) 0,00 h 0,00 h
10.11.2011 01:00 21,8 C 6,0 C 6,5 C 99 % 0 % 1016 hPa 0,0 l/m 7,9 km/h (2 Bft) 0,00 h 0,00 h
10.11.2011 02:00 21,8 C 5,9 C 6,3 C 99 % 0 % 1016 hPa 0,0 l/m 9,5 km/h (2 Bft) 0,00 h 0,00 h
10.11.2011 03:00 21,8 C 5,9 C 6,3 C 99 % 0 % 1016 hPa 0,0 l/m 10,4 km/h (2 Bft) 0,00 h 0,00 h
10.11.2011 04:00 21,8 C 5,7 C 6,1 C 99 % 0 % 1016 hPa 0,0 l/m 12,8 km/h (3 Bft) 0,00 h 0,00 h
10.11.2011 05:00 20,8 C 5,6 C 5,9 C 99 % 0 % 1016 hPa 0,0 l/m 10,3 km/h (2 Bft) 0,00 h 0,00 h
10.11.2011 06:00 20,4 C 5,4 C 5,9 C 99 % 0 % 1016 hPa 0,0 l/m 8,1 km/h (2 Bft) 0,00 h 0,00 h
10.11.2011 07:00 20,5 C 5,2 C 5,8 C 99 % 0 % 1016 hPa 0,0 l/m 6,9 km/h (2 Bft) 0,00 h 0,00 h
10.11.2011 08:00 21,3 C 5,2 C 5,7 C 99 % 2 % 1016 hPa 0,0 l/m 9,7 km/h (2 Bft) 0,00 h 0,00 h
10.11.2011 09:00 21,4 C 5,0 C 5,6 C 99 % 4 % 1017 hPa 0,0 l/m 13,2 km/h (3 Bft) 0,00 h 0,00 h
10.11.2011 10:00 21,5 C 4,9 C 5,6 C 99 % 6 % 1017 hPa 0,0 l/m 13,7 km/h (3 Bft) 0,00 h 0,00 h
10.11.2011 11:00 21,6 C 5,3 C 6,2 C 99 % 9 % 1017 hPa 0,0 l/m 12,8 km/h (3 Bft) 0,00 h 0,00 h
10.11.2011 12:00 21,6 C 5,9 C 7,3 C 99 % 12 % 1016 hPa 0,0 l/m 6,6 km/h (2 Bft) 0,00 h 0,00 h
10.11.2011 13:00 21,6 C 6,3 C 7,7 C 99 % 9 % 1016 hPa 0,0 l/m 2,7 km/h (1 Bft) 0,00 h 0,00 h
10.11.2011 14:00 21,9 C 6,7 C 8,2 C 98 % 6 % 1015 hPa 0,0 l/m 0,1 km/h (0 Bft) 0,00 h 0,00 h
10.11.2011 15:00 21,8 C 6,8 C 8,0 C 98 % 2 % 1015 hPa 0,0 l/m 0,0 km/h (0 Bft) 0,00 h 0,00 h
10.11.2011 16:00 21,8 C 6,8 C 7,7 C 99 % 0 % 1015 hPa 0,0 l/m 0,0 km/h (0 Bft) 0,00 h 0,00 h
10.11.2011 17:00 21,9 C 6,8 C 7,5 C 99 % 0 % 1016 hPa 0,0 l/m 0,0 km/h (0 Bft) 0,00 h 0,00 h
10.11.2011 18:00 21,3 C 6,7 C 7,5 C 99 % 0 % 1016 hPa 0,0 l/m 0,0 km/h (0 Bft) 0,00 h 0,00 h
10.11.2011 19:00 20,6 C 6,7 C 7,4 C 99 % 0 % 1016 hPa 0,0 l/m 0,0 km/h (0 Bft) 0,00 h 0,00 h
10.11.2011 20:00 21,5 C 6,6 C 7,2 C 99 % 0 % 1016 hPa 0,0 l/m 1,3 km/h (1 Bft) 0,00 h 0,00 h
10.11.2011 21:00 21,6 C 6,7 C 6,5 C 98 % 0 % 1016 hPa 0,0 l/m 15,4 km/h (3 Bft) 0,00 h 0,00 h
10.11.2011 22:00 21,6 C 5,9 C 5,4 C 97 % 0 % 1017 hPa 0,0 l/m 12,0 km/h (2 Bft) 0,00 h 0,00 h
10.11.2011 23:00 21,6 C 5,3 C 5,1 C 94 % 0 % 1017 hPa 0,0 l/m 15,3 km/h (3 Bft) 0,00 h 0,00 h
11.11.2011 00:00 21,6 C 4,2 C 3,5 C 92 % 0 % 1017 hPa 0,0 l/m 11,8 km/h (2 Bft) 0,00 h 0,00 h
11.11.2011 01:00 21,6 C 2,8 C 2,1 C 92 % 0 % 1017 hPa 0,0 l/m 5,4 km/h (1 Bft) 0,00 h 0,00 h
11.11.2011 02:00 21,6 C 1,8 C 1,7 C 94 % 0 % 1017 hPa 0,0 l/m 6,8 km/h (2 Bft) 0,00 h 0,00 h
11.11.2011 03:00 21,6 C 2,4 C 3,2 C 92 % 0 % 1017 hPa 0,0 l/m 9,2 km/h (2 Bft) 0,00 h 0,00 h
11.11.2011 04:00 21,7 C 2,5 C 3,9 C 93 % 0 % 1017 hPa 0,0 l/m 1,5 km/h (1 Bft) 0,00 h 0,00 h
11.11.2011 05:00 20,6 C 2,3 C 3,2 C 93 % 0 % 1017 hPa 0,0 l/m 0,7 km/h (0 Bft) 0,00 h 0,00 h
11.11.2011 06:00 21,3 C 2,2 C 3,6 C 93 % 0 % 1017 hPa 0,0 l/m 2,5 km/h (1 Bft) 0,00 h 0,00 h
11.11.2011 07:00 20,4 C 2,2 C 2,9 C 93 % 1 % 1018 hPa 0,0 l/m 6,7 km/h (2 Bft) 0,00 h 0,00 h
11.11.2011 08:00 21,3 C 2,3 C 3,6 C 93 % 3 % 1018 hPa 0,0 l/m 1,0 km/h (0 Bft) 0,00 h 0,00 h
11.11.2011 09:00 21,5 C 2,7 C 3,9 C 92 % 5 % 1019 hPa 0,0 l/m 5,0 km/h (1 Bft) 0,00 h 0,00 h
11.11.2011 10:00 21,5 C 3,2 C 4,4 C 90 % 8 % 1019 hPa 0,0 l/m 8,2 km/h (2 Bft) 0,00 h 0,00 h
11.11.2011 11:00 21,6 C 4,0 C 6,1 C 88 % 17 % 1019 hPa 0,0 l/m 5,6 km/h (1 Bft) 0,00 h 0,00 h
11.11.2011 12:00 21,6 C 5,4 C 8,3 C 83 % 63 % 1018 hPa 0,0 l/m 4,9 km/h (1 Bft) 0,85 h 0,00 h
11.11.2011 13:00 21,8 C 7,2 C 7,6 C 74 % 48 % 1018 hPa 0,0 l/m 14,1 km/h (3 Bft) 0,30 h 0,00 h
11.11.2011 14:00 22,3 C 8,2 C 8,0 C 62 % 27 % 1018 hPa 0,0 l/m 21,5 km/h (4 Bft) 0,00 h 0,00 h
11.11.2011 15:00 22,1 C 7,9 C 7,2 C 62 % 13 % 1018 hPa 0,0 l/m 16,0 km/h (3 Bft) 0,00 h 0,00 h
11.11.2011 16:00 22,2 C 6,8 C 5,4 C 64 % 2 % 1018 hPa 0,0 l/m 12,5 km/h (3 Bft) 0,00 h 0,00 h
11.11.2011 17:00 22,3 C 5,3 C 3,9 C 68 % 0 % 1019 hPa 0,0 l/m 3,1 km/h (1 Bft) 0,00 h 0,00 h
11.11.2011 18:00 22,3 C 3,9 C 2,8 C 74 % 0 % 1019 hPa 0,0 l/m 3,7 km/h (1 Bft) 0,00 h 0,00 h
11.11.2011 19:00 22,4 C 3,0 C 2,2 C 75 % 0 % 1020 hPa 0,0 l/m 3,9 km/h (1 Bft) 0,00 h 0,00 h
11.11.2011 20:00 22,4 C 2,9 C 2,1 C 73 % 0 % 1020 hPa 0,0 l/m 5,3 km/h (1 Bft) 0,00 h 0,00 h
11.11.2011 21:00 22,4 C 2,4 C 1,8 C 74 % 0 % 1021 hPa 0,0 l/m 2,5 km/h (1 Bft) 0,00 h 0,00 h
11.11.2011 22:00 22,5 C 2,0 C 1,5 C 75 % 0 % 1021 hPa 0,0 l/m 3,4 km/h (1 Bft) 0,00 h 0,00 h
11.11.2011 23:00 22,4 C 1,8 C 1,1 C 75 % 0 % 1022 hPa 0,0 l/m 4,2 km/h (1 Bft) 0,00 h 0,00 h
12.11.2011 00:00 22,3 C 1,3 C 0,6 C 77 % 0 % 1022 hPa 0,0 l/m 8,2 km/h (2 Bft) 0,00 h 0,00 h
12.11.2011 01:00 22,2 C 0,7 C 0,3 C 80 % 0 % 1022 hPa 0,0 l/m 7,0 km/h (2 Bft) 0,00 h 0,00 h
12.11.2011 02:00 22,2 C 0,3 C -0,0 C 82 % 0 % 1023 hPa 0,0 l/m 5,8 km/h (2 Bft) 0,00 h 0,00 h
12.11.2011 03:00 22,2 C -0,0 C -0,3 C 83 % 0 % 1023 hPa 0,0 l/m 5,2 km/h (1 Bft) 0,00 h 0,00 h
12.11.2011 04:00 22,2 C -0,4 C -0,4 C 84 % 0 % 1024 hPa 0,0 l/m 4,4 km/h (1 Bft) 0,00 h 0,00 h
12.11.2011 05:00 22,1 C -0,6 C -0,3 C 85 % 0 % 1024 hPa 0,0 l/m 1,2 km/h (1 Bft) 0,00 h 0,00 h
12.11.2011 06:00 22,1 C -0,9 C -0,5 C 85 % 0 % 1025 hPa 0,0 l/m 2,7 km/h (1 Bft) 0,00 h 0,00 h
12.11.2011 07:00 22,1 C -1,0 C -0,3 C 86 % 2 % 1025 hPa 0,0 l/m 3,4 km/h (1 Bft) 0,00 h 0,00 h
12.11.2011 08:00 22,3 C -0,1 C 2,0 C 87 % 11 % 1026 hPa 0,0 l/m 9,0 km/h (2 Bft) 0,00 h 0,00 h
12.11.2011 09:00 21,0 C 1,3 C 1,8 C 84 % 26 % 1026 hPa 0,0 l/m 12,3 km/h (3 Bft) 0,00 h 0,00 h
12.11.2011 10:00 21,9 C 2,8 C 3,1 C 75 % 47 % 1027 hPa 0,0 l/m 17,9 km/h (3 Bft) 0,30 h 0,00 h
12.11.2011 11:00 22,2 C 4,1 C 7,1 C 69 % 88 % 1027 hPa 0,0 l/m 18,3 km/h (3 Bft) 1,00 h 0,00 h
12.11.2011 12:00 22,4 C 5,2 C 6,0 C 66 % 89 % 1026 hPa 0,0 l/m 17,1 km/h (3 Bft) 1,00 h 0,00 h
12.11.2011 13:00 22,9 C 5,8 C 5,6 C 65 % 56 % 1026 hPa 0,0 l/m 14,3 km/h (3 Bft) 0,55 h 0,00 h
12.11.2011 14:00 21,8 C 6,3 C 6,3 C 61 % 29 % 1026 hPa 0,0 l/m 12,0 km/h (2 Bft) 0,00 h 0,00 h
12.11.2011 15:00 20,6 C 6,1 C 5,9 C 60 % 15 % 1026 hPa 0,0 l/m 10,2 km/h (2 Bft) 0,00 h 0,00 h
12.11.2011 16:00 21,8 C 5,4 C 4,2 C 62 % 2 % 1026 hPa 0,0 l/m 8,7 km/h (2 Bft) 0,05 h 0,00 h
12.11.2011 17:00 22,4 C 4,6 C 3,3 C 67 % 0 % 1027 hPa 0,0 l/m 8,2 km/h (2 Bft) 0,00 h 0,00 h
12.11.2011 18:00 22,5 C 3,9 C 2,8 C 72 % 0 % 1027 hPa 0,0 l/m 9,7 km/h (2 Bft) 0,00 h 0,00 h
12.11.2011 19:00 22,6 C 3,4 C 2,4 C 76 % 0 % 1027 hPa 0,0 l/m 8,4 km/h (2 Bft) 0,00 h 0,00 h
12.11.2011 20:00 22,7 C 3,0 C 2,1 C 78 % 0 % 1027 hPa 0,0 l/m 6,1 km/h (2 Bft) 0,00 h 0,00 h
12.11.2011 21:00 22,8 C 2,6 C 1,7 C 80 % 0 % 1027 hPa 0,0 l/m 5,7 km/h (1 Bft) 0,00 h 0,00 h
12.11.2011 22:00 22,8 C 2,2 C 1,5 C 81 % 0 % 1027 hPa 0,0 l/m 2,6 km/h (1 Bft) 0,00 h 0,00 h
12.11.2011 23:00 22,6 C 1,7 C 1,1 C 83 % 0 % 1027 hPa 0,0 l/m 1,9 km/h (1 Bft) 0,00 h 0,00 h
13.11.2011 00:00 22,6 C 1,1 C 0,7 C 84 % 0 % 1027 hPa 0,0 l/m 2,2 km/h (1 Bft) 0,00 h 0,00 h
13.11.2011 01:00 22,4 C 1,0 C 0,8 C 85 % 0 % 1027 hPa 0,0 l/m 2,1 km/h (1 Bft) 0,00 h 0,00 h
13.11.2011 02:00 22,4 C 0,6 C 0,3 C 86 % 0 % 1027 hPa 0,0 l/m 2,8 km/h (1 Bft) 0,00 h 0,00 h
13.11.2011 03:00 22,3 C 0,3 C 0,3 C 87 % 0 % 1026 hPa 0,0 l/m 2,2 km/h (1 Bft) 0,00 h 0,00 h
13.11.2011 04:00 22,3 C -0,2 C 0,1 C 88 % 0 % 1026 hPa 0,0 l/m 0,0 km/h (0 Bft) 0,00 h 0,00 h
13.11.2011 05:00 22,3 C -0,4 C -0,2 C 89 % 0 % 1026 hPa 0,0 l/m 1,0 km/h (0 Bft) 0,00 h 0,00 h
13.11.2011 06:00 22,3 C -0,2 C -0,2 C 88 % 0 % 1026 hPa 0,0 l/m 2,5 km/h (1 Bft) 0,00 h 0,00 h
13.11.2011 07:00 22,4 C -0,6 C 0,3 C 89 % 2 % 1026 hPa 0,0 l/m 1,4 km/h (1 Bft) 0,00 h 0,00 h
13.11.2011 08:00 22,8 C 0,8 C 3,8 C 87 % 11 % 1026 hPa 0,0 l/m 5,5 km/h (1 Bft) 0,00 h 0,00 h
13.11.2011 09:00 21,7 C 2,1 C 2,3 C 84 % 26 % 1027 hPa 0,0 l/m 8,8 km/h (2 Bft) 0,00 h 0,00 h
13.11.2011 10:00 22,5 C 3,6 C 3,6 C 78 % 48 % 1026 hPa 0,0 l/m 10,7 km/h (2 Bft) 0,30 h 0,00 h
13.11.2011 11:00 22,4 C 4,9 C 8,6 C 73 % 88 % 1026 hPa 0,0 l/m 8,4 km/h (2 Bft) 1,00 h 0,00 h
13.11.2011 12:00 22,4 C 5,9 C 6,9 C 70 % 87 % 1025 hPa 0,0 l/m 6,3 km/h (2 Bft) 1,00 h 0,00 h
13.11.2011 13:00 22,4 C 6,6 C 6,5 C 69 % 55 % 1025 hPa 0,0 l/m 2,7 km/h (1 Bft) 0,55 h 0,00 h
13.11.2011 14:00 22,4 C 7,0 C 8,4 C 70 % 27 % 1024 hPa 0,0 l/m 1,3 km/h (1 Bft) 0,00 h 0,00 h
13.11.2011 15:00 21,9 C 6,9 C 7,4 C 72 % 13 % 1024 hPa 0,0 l/m 0,7 km/h (0 Bft) 0,00 h 0,00 h
13.11.2011 16:00 21,5 C 5,9 C 3,7 C 73 % 2 % 1024 hPa 0,0 l/m 0,0 km/h (0 Bft) 0,10 h 0,00 h
13.11.2011 17:00 22,3 C 4,9 C 2,3 C 75 % 0 % 1025 hPa 0,0 l/m 0,5 km/h (0 Bft) 0,00 h 0,00 h
13.11.2011 18:00 22,9 C 4,0 C 1,9 C 78 % 0 % 1025 hPa 0,0 l/m 0,1 km/h (0 Bft) 0,00 h 0,00 h
13.11.2011 19:00 22,8 C 3,2 C 1,5 C 81 % 0 % 1025 hPa 0,0 l/m 0,0 km/h (0 Bft) 0,00 h 0,00 h
13.11.2011 20:00 22,7 C 2,5 C 1,1 C 82 % 0 % 1024 hPa 0,0 l/m 0,0 km/h (0 Bft) 0,00 h 0,00 h
13.11.2011 21:00 22,7 C 1,6 C 0,6 C 84 % 0 % 1025 hPa 0,0 l/m 0,0 km/h (0 Bft) 0,00 h 0,00 h
13.11.2011 22:00 22,6 C 1,1 C 0,4 C 85 % 0 % 1024 hPa 0,0 l/m 0,0 km/h (0 Bft) 0,00 h 0,00 h
13.11.2011 23:00 22,4 C 0,3 C 0,2 C 87 % 0 % 1024 hPa 0,0 l/m 0,1 km/h (0 Bft) 0,00 h 0,00 h
Min-Datum _ 10.11.11 12.11.11 12.11.11 07.11.11 - 07.11.11 - 08.11.11 - -
_ Min-Zeit 05:58 07:16 06:07 13:25 - 00:00 - 00:57 - -
Minimum _ 17,7 C -1,2 C -1,0 C 56 % - 1007 hPa - 0,0 km/h (0 Bft) - -
Max-Datum _ 12.11.11 08.11.11 08.11.11 09.11.11 07.11.11 12.11.11 07.11.11 07.11.11 07.11.11 07.11.11
_ Max-Zeit 13:49 14:22 11:07 07:55 12:40 10:16 00:00 01:07 11:19 00:00
Maximum _ 23,1 C 14,5 C 17,9 C 99 % 100 % 1027 hPa 0,0 l/m 37,7 km/h
O-SO (5 Bft)
0,05 h 0,00 h
Durchschnitt _ 21,9 C 5,9 C 5,7 C 83 % #12:33 h 1018 hPa #0,0 l/m 8,5 km/h (2 Bft) #12:33 h #0 min.